Tropical Cyclones
[Index]
Main Index Home Page Stock Weather Photos Extreme Storms Discussion Storm News and Storm Chasing Reports Tropical Cyclones / Hurricanes / Typhoons Weather Data and Links Wild Fires / Bushfires Weather Observation Techniques Weather Picture Catalogue Tornado Pictures and Reports Stock Video Footage and DVDs for sale
Season 1997-1998 Tropical Cyclone VICTOR-CINDY Track Map
Season 1997-1998 Summaries (Operational Data): [AU] [SIO] [SPAC] [SH]
<<- Previous TC | 1997-1998 Season | Next TC ->>

click for intensity scale information  Lat/long Grid: Show Hide

 Date Labels: Show Hide

Operational Tropical Cyclone Data : JTWC Advisories

Name: VICTOR-CINDY
Number: 9822

10 Feb 1998 00:00 UTC to 19 Feb 1998 00:00 UTC

    date/time    lat    long     hPa   cat  kts
1998-02-10 00   15.5   120.5    1000         30          
1998-02-10 06   15.5   119.8    1002         30          
1998-02-10 12   15.4   119.0    1000    1    45          
1998-02-10 18   15.5   118.3     995    1    45          
1998-02-11 00   15.5   117.6     990    1    45          
1998-02-11 06   15.5   116.7     990    1    45          
1998-02-11 12   15.4   115.5     990    1    45          
1998-02-11 18   15.2   114.6     990    1    45          
1998-02-12 00   15.0   113.6     985    2    50          
1998-02-12 06   14.8   112.5     980    2    60          
1998-02-12 12   15.5   111.4            2    60          
1998-02-12 18   16.1   110.1     975    2    60          
1998-02-13 00   16.8   108.9     965    3    65          
1998-02-13 06   17.2   107.9     965    3    70          
1998-02-13 12   17.5   106.8     965    3    70          
1998-02-13 18   17.6   105.6     965    3    70          
1998-02-14 00   18.0   104.3     965    3    70          
1998-02-14 06   18.6   102.5     970    2    60          
1998-02-14 12   19.0   100.8     975    2    55          
1998-02-14 18   18.9    99.7     975    2    55          
1998-02-15 00   18.7    99.2     985    2    55          
1998-02-15 03   19.8    95.6     988    2    50          
1998-02-15 06   19.9    94.7     988    2    50          
1998-02-15 12   20.2    93.1     992    1    40          
1998-02-15 18   20.6    91.9     992    1    40          
1998-02-16 00   21.2    90.7     995    1    35          
1998-02-16 12   21.6    87.1            1    35          
1998-02-17 00   21.7    83.0            1    35          
1998-02-17 12   21.5    81.0            1    35          
1998-02-18 00   22.6    76.3            1    35          
1998-02-18 12   25.3    74.9            1    35          
1998-02-19 00   28.5    74.8            1    35          
Winds are 10-min average.

Tropical cyclone tracks developed by Michael Bath using operational warnings and advisories and Google Maps.


[Australian Severe Weather index] [Copyright Notice] [Email Contacts] [Search This Site] [Privacy Policy]
Document: tropical_cyclone_victor-cindy.htm Updated: 28 May 2013